Merritt Island, FL (32953)

8:28 PM EST on February 22, 2017 (GMT -0500)
Raintree by the Lake | | Change Station

Elev 14 ft 28.40 °N, 80.70 °W | Updated 12 seconds ago

Rain
Rain
65.3 °F
Feels Like 65.3 °F
N
0.0
Wind Variable Wind from ENE
Gusts 0.0 mph

Today
High -- | Low -- °F
--% Chance of Precip.
Yesterday
High -- | Low -- °F
Precip. -- in
Pressure 29.69 in
Visibility 10.0 miles
Clouds Overcast 9000 ft
Dew Point 64 °F
Humidity 96%
Rainfall 2.46 in
Snow Depth Not available.
6:54 AM 6:18 PM
Waning Crescent, 14% visible
METAR KXMR 230058Z AUTO 15008KT 10SM -RA OVC090 19/17 A2968 RMK AO2 SLP054 P0004 T01860166 $
Pressure 29.69 in
Visibility 10.0 miles
Clouds Overcast 9000 ft
Dew Point 64 °F
Humidity 96%
Rainfall 2.46 in
Snow Depth Not available.
6:54 AM 6:18 PM
Waning Crescent, 14% visible
METAR KXMR 230058Z AUTO 15008KT 10SM -RA OVC090 19/17 A2968 RMK AO2 SLP054 P0004 T01860166 $

Get Your Daily Forecast Email!

Thanks for signing up!

Be on the lookout for a verification email in your inbox.

You'll start receiving the daily forecast at 8 AM.

×

10-Day Weather Forecast

Almanac

Astronomy

Feb. 22, 2017 Rise Set
Actual Time
Civil Twilight
Nautical Twilight
Astronomical Twilight
Moon
Length of Visible Light
Length of Day
Tomorrow will be .
, % of the Moon is Illuminated

Today's Extremes

State Highs State Lows

Community

WunderPhotos

Upload Photos

1,962,540 photos uploaded!

WunderBlog® & News

Nearby

Air Quality

  Air Quality AQ Index Pollutant
Not available.

Snow Depth

Station Depth Elevation

Earthquake Activity

City Distance Mag. Time & Date
Minimum magnitude displayed is 2.5.

Coastal Water Temperatures

Place Temperature

Stations

Nearby Weather Stations

Station Location Temp. Windchill Dew Point Humidity Wind Precip. Elev Updated Type
                   

Watches & Warnings

There are currently no watches in effect.